Seaspan Queen — CFN6640 — position and weather

sailwx.info

Track history (hours):
 
Tides and Currents Weather Stations Pressure Air Temp Water Temp Dewpoint Dewpoint Depression Visibility Wind Speed Wind Dir Waves Ship Positions

Seaspan Queen

Last reported at 2017-Dec-11 17:36 UTC. Time now 2017-Dec-18 12:56 UTC.
Position N 49°19' W 123°06'.

Length 27 m; draft 3.5 m.

Type: Tug. MMSI: 316003678.

Date/timePositionNaut miles runAvg speedWind from/ knotsBaromVisibWave heightAir tempDewpointWater temp
2017-Dec-11 17:36N 49°19' W 123°06'0 0.1
2017-Dec-11 17:30N 49°19' W 123°06'0 0.0
2017-Dec-11 17:00N 49°19' W 123°06'0 0.0
2017-Dec-11 16:30N 49°19' W 123°06'0 0.0
2017-Dec-11 16:01N 49°19' W 123°06'0 0.0
2017-Dec-11 15:31N 49°19' W 123°06'0 0.0
2017-Dec-11 15:00N 49°19' W 123°06'0 0.0
2017-Dec-11 14:30N 49°19' W 123°06'0 0.0
2017-Dec-11 14:00N 49°19' W 123°06'0 0.0
2017-Dec-11 13:30N 49°19' W 123°06'0 0.0
2017-Dec-11 13:00N 49°19' W 123°06'0 0.0
2017-Dec-11 12:30N 49°19' W 123°06'0 0.0
2017-Dec-11 12:00N 49°19' W 123°06'0 0.0
2017-Dec-11 11:30N 49°19' W 123°06'0 0.0
2017-Dec-11 11:00N 49°19' W 123°06'0 0.0
2017-Dec-11 10:30N 49°19' W 123°06'0 0.0
2017-Dec-11 10:00N 49°19' W 123°06'0 0.0
2017-Dec-11 09:30N 49°19' W 123°06'0 0.0
2017-Dec-11 09:01N 49°19' W 123°06'0 0.0
2017-Dec-11 08:30N 49°19' W 123°06'0 0.0
2017-Dec-11 08:00N 49°19' W 123°06'0 0.0
2017-Dec-11 07:30N 49°19' W 123°06'0 0.0
2017-Dec-11 07:00N 49°19' W 123°06'0 0.0
2017-Dec-11 06:30N 49°19' W 123°06'0 0.0
2017-Dec-11 06:00N 49°19' W 123°06'0 0.6
2017-Dec-11 05:30N 49°18' W 123°06'4 7.9
2017-Dec-11 05:00N 49°19' W 123°13'4 8.5
2017-Dec-11 04:30N 49°16' W 123°18'4 8.8
2017-Dec-11 04:00N 49°12' W 123°19'4 8.2
2017-Dec-11 03:30N 49°08' W 123°19'4 6.4
2017-Dec-11 02:55N 49°08' W 123°13'510.8
2017-Dec-11 02:27N 49°07' W 123°06'511.1
2017-Dec-11 02:00N 49°09' W 122°59'4 8.0
2017-Dec-11 01:30N 49°12' W 122°54'1 1.1
2017-Dec-11 01:00N 49°12' W 122°55'1 2.7
2017-Dec-11 00:30N 49°10' W 122°55'0 0.0
2017-Dec-11 00:01N 49°10' W 122°55'0 0.0
2017-Dec-10 23:30N 49°10' W 122°55'0 0.0
2017-Dec-10 23:00N 49°10' W 122°55'0 0.0
2017-Dec-10 22:30N 49°10' W 122°55'0 0.0
2017-Dec-10 22:00N 49°10' W 122°55'0 0.0
2017-Dec-10 21:30N 49°10' W 122°55'0 0.0
2017-Dec-10 21:00N 49°10' W 122°55'0 0.0
2017-Dec-10 20:30N 49°10' W 122°55'0 0.0
2017-Dec-10 20:00N 49°10' W 122°55'0 0.0
2017-Dec-10 19:30N 49°10' W 122°55'0 0.0
2017-Dec-10 19:00N 49°10' W 122°55'0 0.0
2017-Dec-10 18:30N 49°10' W 122°55'0 0.0
2017-Dec-10 18:00N 49°10' W 122°55'0 0.0
2017-Dec-10 17:30N 49°10' W 122°55'0 0.0
2017-Dec-10 17:00N 49°10' W 122°55'0 0.0
2017-Dec-10 16:30N 49°10' W 122°55'0 0.0
2017-Dec-10 16:00N 49°10' W 122°55'0 0.0
2017-Dec-10 15:30N 49°10' W 122°55'0 0.0
2017-Dec-10 15:00N 49°10' W 122°55'2 4.3
2017-Dec-10 14:30N 49°09' W 122°59'2 3.5
2017-Dec-10 14:00N 49°09' W 123°01'1 2.3
2017-Dec-10 13:30N 49°09' W 123°03'1 2.3
2017-Dec-10 12:59N 49°08' W 123°04'2 3.4
2017-Dec-10 12:30N 49°07' W 123°06'2 3.5
2017-Dec-10 11:59N 49°06' W 123°09'1 3.0
2017-Dec-10 11:30N 49°07' W 123°11'2 2.9
2017-Dec-10 10:59N 49°08' W 123°13'1 2.8
2017-Dec-10 10:30N 49°08' W 123°15'2 3.1
2017-Dec-10 09:58N 49°07' W 123°17'2 4.1
2017-Dec-10 09:30N 49°06' W 123°20'3 6.7
2017-Dec-10 09:00N 49°09' W 123°23'3 6.9
2017-Dec-10 08:30N 49°13' W 123°21'3 6.3
2017-Dec-10 08:00N 49°16' W 123°21'3 6.2
2017-Dec-10 07:30N 49°18' W 123°18'3 6.2
2017-Dec-10 07:00N 49°19' W 123°13'3 6.6
2017-Dec-10 06:30N 49°19' W 123°08'1 2.4
2017-Dec-10 06:00N 49°19' W 123°06'5 9.6
2017-Dec-10 05:30N 49°18' W 123°14'3 7.1
2017-Dec-10 05:01N 49°15' W 123°16'1 2.2
2017-Dec-10 04:31N 49°16' W 123°17'2 4.7
2017-Dec-10 04:00N 49°18' W 123°15'3 6.7
2017-Dec-10 03:30N 49°19' W 123°10'3 5.9
2017-Dec-10 03:00N 49°18' W 123°06'0 0.5
2017-Dec-10 02:31N 49°18' W 123°06'0 0.3
2017-Dec-10 02:00N 49°19' W 123°06'1 2.3
2017-Dec-10 01:30N 49°17' W 123°06'1 2.4
2017-Dec-10 01:00N 49°18' W 123°05'0 0.2
2017-Dec-10 00:30N 49°18' W 123°05'0 0.0
2017-Dec-10 00:00N 49°18' W 123°05'0 0.0
2017-Dec-09 23:30N 49°18' W 123°05'0 0.1
2017-Dec-09 23:00N 49°18' W 123°05'0 0.2
2017-Dec-09 22:30N 49°18' W 123°05'0 0.2
2017-Dec-09 22:00N 49°18' W 123°05'0 0.0
2017-Dec-09 21:30N 49°18' W 123°05'0 0.3
2017-Dec-09 21:00N 49°18' W 123°05'0 0.1
2017-Dec-09 20:30N 49°18' W 123°05'0 0.2
2017-Dec-09 20:00N 49°18' W 123°05'0 0.1
2017-Dec-09 19:30N 49°18' W 123°05'0 0.0
2017-Dec-09 19:00N 49°18' W 123°05'0 0.1
2017-Dec-09 18:30N 49°18' W 123°05'0 0.1
2017-Dec-09 18:01N 49°18' W 123°05'1 2.4
2017-Dec-09 17:30N 49°19' W 123°06'0 0.0
2017-Dec-09 17:00N 49°19' W 123°06'0 0.0
2017-Dec-09 16:30N 49°19' W 123°06'0 0.0
2017-Dec-09 16:00N 49°19' W 123°06'0 0.0
2017-Dec-09 15:30N 49°19' W 123°06'0 0.0
2017-Dec-09 15:00N 49°19' W 123°06'0 0.0
2017-Dec-09 14:30N 49°19' W 123°06'0 0.0
2017-Dec-09 14:00N 49°19' W 123°06'0 0.0
2017-Dec-09 13:30N 49°19' W 123°06'0 0.0
2017-Dec-09 13:00N 49°19' W 123°06'0 0.0
2017-Dec-09 12:30N 49°19' W 123°06'0 0.0
2017-Dec-09 12:00N 49°19' W 123°06'0 0.0
2017-Dec-09 11:30N 49°19' W 123°06'0 0.0
2017-Dec-09 11:00N 49°19' W 123°06'0 0.0
2017-Dec-09 10:30N 49°19' W 123°06'0 0.0
2017-Dec-09 10:01N 49°19' W 123°06'0 0.0
2017-Dec-09 09:30N 49°19' W 123°06'0 0.0
2017-Dec-09 09:00N 49°19' W 123°06'0 0.0
2017-Dec-09 08:30N 49°19' W 123°06'0 0.0
2017-Dec-09 08:00N 49°19' W 123°06'0 0.0
2017-Dec-09 07:30N 49°19' W 123°06'0 0.0
2017-Dec-09 07:00N 49°19' W 123°06'0 0.0
2017-Dec-09 06:31N 49°19' W 123°06'0 0.0
2017-Dec-09 06:00N 49°19' W 123°06'0 0.0
2017-Dec-09 05:30N 49°19' W 123°06'0 0.0
2017-Dec-09 05:00N 49°19' W 123°06'0 0.6
2017-Dec-09 04:30N 49°19' W 123°06'0 0.8
2017-Dec-09 04:00N 49°18' W 123°07'3 6.7
2017-Dec-09 03:30N 49°19' W 123°12'4 8.1
2017-Dec-09 03:00N 49°17' W 123°18'4 7.8
2017-Dec-09 02:28N 49°14' W 123°22'23 1.9
2017-Dec-08 14:26N 48°56' W 123°42'0 0.6
2017-Dec-08 14:00N 48°56' W 123°42'1 2.4
2017-Dec-08 13:29N 48°57' W 123°42'3 3.6
2017-Dec-08 12:47N 48°55' W 123°39'14 2.3
2017-Dec-08 06:46N 49°08' W 123°29'1 3.8
2017-Dec-08 06:23N 49°09' W 123°28'1 3.8
2017-Dec-08 06:01N 49°10' W 123°27'2 3.6
2017-Dec-08 05:30N 49°12' W 123°26'2 3.7
2017-Dec-08 05:00N 49°13' W 123°24'2 4.2
2017-Dec-08 04:30N 49°15' W 123°23'2 4.0
2017-Dec-08 04:00N 49°17' W 123°21'2 3.9
2017-Dec-08 03:29N 49°18' W 123°19'2 3.8
2017-Dec-08 03:00N 49°19' W 123°16'2 3.7
2017-Dec-08 02:30N 49°19' W 123°14'2 4.2
2017-Dec-08 02:00N 49°19' W 123°10'3 5.7
2017-Dec-08 01:31N 49°18' W 123°06'3 6.3
2017-Dec-08 01:00N 49°18' W 123°02'2 4.5
2017-Dec-08 00:28N 49°18' W 122°58'0 0.4
2017-Dec-07 23:56N 49°17' W 122°58'0 0.0
2017-Dec-07 23:29N 49°17' W 122°58'2 3.9
2017-Dec-07 23:00N 49°18' W 123°01'4 7.1
2017-Dec-07 22:31N 49°18' W 123°06'0 0.6
2017-Dec-07 22:00N 49°18' W 123°06'1 1.4
2017-Dec-07 21:30N 49°19' W 123°06'0 0.0
2017-Dec-07 21:00N 49°19' W 123°06'0 0.0
2017-Dec-07 20:31N 49°19' W 123°06'0 0.0
2017-Dec-07 20:01N 49°19' W 123°06'0 0.7
2017-Dec-07 19:30N 49°18' W 123°06'1 1.7
2017-Dec-07 19:00N 49°18' W 123°07'0 0.0
2017-Dec-07 18:30N 49°18' W 123°07'0 0.0
2017-Dec-07 18:00N 49°18' W 123°07'0 0.0
2017-Dec-07 17:30N 49°18' W 123°07'0 0.0
2017-Dec-07 17:00N 49°18' W 123°07'0 0.0
2017-Dec-07 16:30N 49°18' W 123°07'1 1.3
2017-Dec-07 16:00N 49°18' W 123°06'1 1.8
2017-Dec-07 15:30N 49°17' W 123°05'1 1.5
2017-Dec-07 15:00N 49°18' W 123°05'1 1.7
2017-Dec-07 14:30N 49°19' W 123°06'0 0.3
2017-Dec-07 14:01N 49°19' W 123°06'0 0.0
2017-Dec-07 13:30N 49°19' W 123°06'0 0.0
2017-Dec-07 13:00N 49°19' W 123°06'0 0.0
2017-Dec-07 12:30N 49°19' W 123°06'0 0.0
2017-Dec-07 12:00N 49°19' W 123°06'0 0.0
2017-Dec-07 11:31N 49°19' W 123°06'0 0.0
2017-Dec-07 11:00N 49°19' W 123°06'1 1.2
2017-Dec-07 10:30N 49°18' W 123°06'1 2.1
2017-Dec-07 10:00N 49°18' W 123°07'2 3.0
2017-Dec-07 09:30N 49°19' W 123°09'2 3.8
2017-Dec-07 09:00N 49°19' W 123°12'3 6.6
2017-Dec-07 08:30N 49°18' W 123°17'4 6.2
2017-Dec-07 07:56N 49°17' W 123°23'3 6.3
2017-Dec-07 07:29N 49°17' W 123°27'3 6.6
2017-Dec-07 06:59N 49°16' W 123°32'  
2017-Dec-04 10:30N 49°19' W 123°14'3 6.3
2017-Dec-04 10:00N 49°19' W 123°09'2 3.6
2017-Dec-04 09:31N 49°18' W 123°06'2 4.0
2017-Dec-04 09:00N 49°18' W 123°03'2 3.6
2017-Dec-04 08:30N 49°18' W 123°06'0 0.9
2017-Dec-04 08:00N 49°19' W 123°06'0 0.0
2017-Dec-04 07:30N 49°19' W 123°06'0 0.0
2017-Dec-04 07:00N 49°19' W 123°06'0 0.0
2017-Dec-04 06:30N 49°19' W 123°06'0 0.0
2017-Dec-04 06:00N 49°19' W 123°06'0 0.0
2017-Dec-04 05:30N 49°19' W 123°06'0 0.0
2017-Dec-04 05:00N 49°19' W 123°06'0 0.5
2017-Dec-04 04:30N 49°18' W 123°06'1 1.8
2017-Dec-04 04:01N 49°18' W 123°07'0 0.0
2017-Dec-04 03:30N 49°18' W 123°07'1 2.0
2017-Dec-04 03:00N 49°19' W 123°06'0 0.5
2017-Dec-04 02:31N 49°19' W 123°06'0 0.0
2017-Dec-04 02:01N 49°19' W 123°06'0 0.0
2017-Dec-04 01:30N 49°19' W 123°06'1 2.8
2017-Dec-04 01:01N 49°19' W 123°08'5 9.7
2017-Dec-04 00:30N 49°18' W 123°16'3 5.7
2017-Dec-03 23:59N 49°15' W 123°16'1 3.1
2017-Dec-03 23:30N 49°16' W 123°17'1 2.2
2017-Dec-03 22:56N 49°16' W 123°19'22 7.3
2017-Dec-03 19:53N 49°12' W 123°53'3 5.8
2017-Dec-03 19:26N 49°09' W 123°52'1 1.0
2017-Dec-03 18:36N 49°09' W 123°51'0 0.0
2017-Dec-03 18:17N 49°09' W 123°51'0 0.1
2017-Dec-03 17:47N 49°09' W 123°51'2 0.3
2017-Dec-03 11:29N 49°10' W 123°53'13 4.4
2017-Dec-03 08:36N 49°14' W 123°35'1 5.3
2017-Dec-03 08:24N 49°15' W 123°33'2 5.5
2017-Dec-03 07:57N 49°15' W 123°29'3 5.5
2017-Dec-03 07:30N 49°15' W 123°25'3 5.5
2017-Dec-03 07:00N 49°16' W 123°21'2 4.5
2017-Dec-03 06:30N 49°16' W 123°18'1 2.8
2017-Dec-03 06:00N 49°15' W 123°18'3 6.4
2017-Dec-03 05:30N 49°11' W 123°19'3 6.3
2017-Dec-03 05:00N 49°08' W 123°19'6 6.4
2017-Dec-03 04:08N 49°07' W 123°11'211.4
2017-Dec-03 04:00N 49°07' W 123°09'510.4
2017-Dec-03 03:30N 49°09' W 123°02'3 5.8
2017-Dec-03 03:00N 49°09' W 122°57'3 0.5
2017-Dec-02 20:25N 49°12' W 122°55'3 7.8
2017-Dec-02 20:00N 49°09' W 122°58'3 5.3
2017-Dec-02 19:30N 49°09' W 123°02'5 9.6
2017-Dec-02 19:00N 49°11' W 122°55'1 0.7
2017-Dec-02 17:34N 49°12' W 122°55'0 5.6
2017-Dec-02 17:30N 49°12' W 122°55'1 3.1
2017-Dec-02 17:00N 49°10' W 122°55'0 0.0
2017-Dec-02 16:30N 49°10' W 122°55'0 0.0
2017-Dec-02 16:00N 49°10' W 122°55'0 0.0
2017-Dec-02 15:30N 49°10' W 122°55'2 3.2
2017-Dec-02 15:00N 49°12' W 122°55'2 3.1
2017-Dec-02 14:30N 49°10' W 122°56'3 5.1
2017-Dec-02 14:00N 49°09' W 122°59'3 5.7
2017-Dec-02 13:30N 49°08' W 123°03'3 6.3
2017-Dec-02 13:00N 49°07' W 123°07'3 6.0
2017-Dec-02 12:30N 49°07' W 123°12'3 5.8
2017-Dec-02 11:58N 49°07' W 123°17'2 4.1
2017-Dec-02 11:30N 49°07' W 123°19'2 5.0
2017-Dec-02 11:00N 49°09' W 123°19'3 6.1
2017-Dec-02 10:30N 49°12' W 123°18'3 5.8
2017-Dec-02 10:00N 49°15' W 123°18'1 2.8
2017-Dec-02 09:30N 49°16' W 123°18'2 4.6
2017-Dec-02 09:00N 49°17' W 123°21'3 5.5
2017-Dec-02 08:31N 49°18' W 123°25'2 4.4
2017-Dec-02 07:59N 49°20' W 123°28'2 4.4
2017-Dec-02 07:30N 49°21' W 123°30'2 4.2
2017-Dec-02 07:00N 49°22' W 123°33'2 4.1
2017-Dec-02 06:27N 49°23' W 123°36'2 3.9
2017-Dec-02 06:00N 49°24' W 123°39'13 3.2
2017-Dec-02 02:01N 49°27' W 123°58'0 3.2
2017-Dec-02 01:56N 49°27' W 123°58'1 2.9
2017-Dec-02 01:25N 49°28' W 124°00'1 3.6
2017-Dec-02 01:00N 49°29' W 124°02'2 4.5
2017-Dec-02 00:27N 49°31' W 124°04'2 4.3
2017-Dec-01 23:54N 49°33' W 124°06'2 4.2
2017-Dec-01 23:29N 49°34' W 124°08'3 4.0
2017-Dec-01 22:49N 49°36' W 124°11'2 4.2
2017-Dec-01 22:13N 49°38' W 124°14'1 4.2
2017-Dec-01 22:00N 49°38' W 124°15'2 4.1
2017-Dec-01 21:30N 49°40' W 124°17'2 3.9
2017-Dec-01 21:00N 49°41' W 124°19'2 4.1
2017-Dec-01 20:30N 49°43' W 124°21'2 4.4
2017-Dec-01 20:00N 49°44' W 124°24'2 4.0
2017-Dec-01 19:30N 49°45' W 124°26'2 3.7
2017-Dec-01 19:00N 49°46' W 124°29'2 4.0
2017-Dec-01 18:30N 49°47' W 124°31'2 4.1
2017-Dec-01 18:00N 49°49' W 124°33'  
Track history (hours):
 
Tides and Currents Weather Stations Pressure Air Temp Water Temp Dewpoint Dewpoint Depression Visibility Wind Speed Wind Dir Waves Ship Positions

Seaspan Queen

Last reported at 2017-Dec-11 17:36 UTC. Time now 2017-Dec-18 12:56 UTC.
Position N 49°19' W 123°06'.

Length 27 m; draft 3.5 m.

Type: Tug. MMSI: 316003678.

Date/timePositionNaut miles runAvg speedWind from/ knotsBaromVisibWave heightAir tempDewpointWater temp
2017-Dec-11 17:36N 49°19' W 123°06'0 0.1
2017-Dec-11 17:30N 49°19' W 123°06'0 0.0
2017-Dec-11 17:00N 49°19' W 123°06'0 0.0
2017-Dec-11 16:30N 49°19' W 123°06'0 0.0
2017-Dec-11 16:01N 49°19' W 123°06'0 0.0
2017-Dec-11 15:31N 49°19' W 123°06'0 0.0
2017-Dec-11 15:00N 49°19' W 123°06'0 0.0
2017-Dec-11 14:30N 49°19' W 123°06'0 0.0
2017-Dec-11 14:00N 49°19' W 123°06'0 0.0
2017-Dec-11 13:30N 49°19' W 123°06'0 0.0
2017-Dec-11 13:00N 49°19' W 123°06'0 0.0
2017-Dec-11 12:30N 49°19' W 123°06'0 0.0
2017-Dec-11 12:00N 49°19' W 123°06'0 0.0
2017-Dec-11 11:30N 49°19' W 123°06'0 0.0
2017-Dec-11 11:00N 49°19' W 123°06'0 0.0
2017-Dec-11 10:30N 49°19' W 123°06'0 0.0
2017-Dec-11 10:00N 49°19' W 123°06'0 0.0
2017-Dec-11 09:30N 49°19' W 123°06'0 0.0
2017-Dec-11 09:01N 49°19' W 123°06'0 0.0
2017-Dec-11 08:30N 49°19' W 123°06'0 0.0
2017-Dec-11 08:00N 49°19' W 123°06'0 0.0
2017-Dec-11 07:30N 49°19' W 123°06'0 0.0
2017-Dec-11 07:00N 49°19' W 123°06'0 0.0
2017-Dec-11 06:30N 49°19' W 123°06'0 0.0
2017-Dec-11 06:00N 49°19' W 123°06'0 0.6
2017-Dec-11 05:30N 49°18' W 123°06'4 7.9
2017-Dec-11 05:00N 49°19' W 123°13'4 8.5
2017-Dec-11 04:30N 49°16' W 123°18'4 8.8
2017-Dec-11 04:00N 49°12' W 123°19'4 8.2
2017-Dec-11 03:30N 49°08' W 123°19'4 6.4
2017-Dec-11 02:55N 49°08' W 123°13'510.8
2017-Dec-11 02:27N 49°07' W 123°06'511.1
2017-Dec-11 02:00N 49°09' W 122°59'4 8.0
2017-Dec-11 01:30N 49°12' W 122°54'1 1.1
2017-Dec-11 01:00N 49°12' W 122°55'1 2.7
2017-Dec-11 00:30N 49°10' W 122°55'0 0.0
2017-Dec-11 00:01N 49°10' W 122°55'0 0.0
2017-Dec-10 23:30N 49°10' W 122°55'0 0.0
2017-Dec-10 23:00N 49°10' W 122°55'0 0.0
2017-Dec-10 22:30N 49°10' W 122°55'0 0.0
2017-Dec-10 22:00N 49°10' W 122°55'0 0.0
2017-Dec-10 21:30N 49°10' W 122°55'0 0.0
2017-Dec-10 21:00N 49°10' W 122°55'0 0.0
2017-Dec-10 20:30N 49°10' W 122°55'0 0.0
2017-Dec-10 20:00N 49°10' W 122°55'0 0.0
2017-Dec-10 19:30N 49°10' W 122°55'0 0.0
2017-Dec-10 19:00N 49°10' W 122°55'0 0.0
2017-Dec-10 18:30N 49°10' W 122°55'0 0.0
2017-Dec-10 18:00N 49°10' W 122°55'0 0.0
2017-Dec-10 17:30N 49°10' W 122°55'0 0.0
2017-Dec-10 17:00N 49°10' W 122°55'0 0.0
2017-Dec-10 16:30N 49°10' W 122°55'0 0.0
2017-Dec-10 16:00N 49°10' W 122°55'0 0.0
2017-Dec-10 15:30N 49°10' W 122°55'0 0.0
2017-Dec-10 15:00N 49°10' W 122°55'2 4.3
2017-Dec-10 14:30N 49°09' W 122°59'2 3.5
2017-Dec-10 14:00N 49°09' W 123°01'1 2.3
2017-Dec-10 13:30N 49°09' W 123°03'1 2.3
2017-Dec-10 12:59N 49°08' W 123°04'2 3.4
2017-Dec-10 12:30N 49°07' W 123°06'2 3.5
2017-Dec-10 11:59N 49°06' W 123°09'1 3.0
2017-Dec-10 11:30N 49°07' W 123°11'2 2.9
2017-Dec-10 10:59N 49°08' W 123°13'1 2.8
2017-Dec-10 10:30N 49°08' W 123°15'2 3.1
2017-Dec-10 09:58N 49°07' W 123°17'2 4.1
2017-Dec-10 09:30N 49°06' W 123°20'3 6.7
2017-Dec-10 09:00N 49°09' W 123°23'3 6.9
2017-Dec-10 08:30N 49°13' W 123°21'3 6.3
2017-Dec-10 08:00N 49°16' W 123°21'3 6.2
2017-Dec-10 07:30N 49°18' W 123°18'3 6.2
2017-Dec-10 07:00N 49°19' W 123°13'3 6.6
2017-Dec-10 06:30N 49°19' W 123°08'1 2.4
2017-Dec-10 06:00N 49°19' W 123°06'5 9.6
2017-Dec-10 05:30N 49°18' W 123°14'3 7.1
2017-Dec-10 05:01N 49°15' W 123°16'1 2.2
2017-Dec-10 04:31N 49°16' W 123°17'2 4.7
2017-Dec-10 04:00N 49°18' W 123°15'3 6.7
2017-Dec-10 03:30N 49°19' W 123°10'3 5.9
2017-Dec-10 03:00N 49°18' W 123°06'0 0.5
2017-Dec-10 02:31N 49°18' W 123°06'0 0.3
2017-Dec-10 02:00N 49°19' W 123°06'1 2.3
2017-Dec-10 01:30N 49°17' W 123°06'1 2.4
2017-Dec-10 01:00N 49°18' W 123°05'0 0.2
2017-Dec-10 00:30N 49°18' W 123°05'0 0.0
2017-Dec-10 00:00N 49°18' W 123°05'0 0.0
2017-Dec-09 23:30N 49°18' W 123°05'0 0.1
2017-Dec-09 23:00N 49°18' W 123°05'0 0.2
2017-Dec-09 22:30N 49°18' W 123°05'0 0.2
2017-Dec-09 22:00N 49°18' W 123°05'0 0.0
2017-Dec-09 21:30N 49°18' W 123°05'0 0.3
2017-Dec-09 21:00N 49°18' W 123°05'0 0.1
2017-Dec-09 20:30N 49°18' W 123°05'0 0.2
2017-Dec-09 20:00N 49°18' W 123°05'0 0.1
2017-Dec-09 19:30N 49°18' W 123°05'0 0.0
2017-Dec-09 19:00N 49°18' W 123°05'0 0.1
2017-Dec-09 18:30N 49°18' W 123°05'0 0.1
2017-Dec-09 18:01N 49°18' W 123°05'1 2.4
2017-Dec-09 17:30N 49°19' W 123°06'0 0.0
2017-Dec-09 17:00N 49°19' W 123°06'0 0.0
2017-Dec-09 16:30N 49°19' W 123°06'0 0.0
2017-Dec-09 16:00N 49°19' W 123°06'0 0.0
2017-Dec-09 15:30N 49°19' W 123°06'0 0.0
2017-Dec-09 15:00N 49°19' W 123°06'0 0.0
2017-Dec-09 14:30N 49°19' W 123°06'0 0.0
2017-Dec-09 14:00N 49°19' W 123°06'0 0.0
2017-Dec-09 13:30N 49°19' W 123°06'0 0.0
2017-Dec-09 13:00N 49°19' W 123°06'0 0.0
2017-Dec-09 12:30N 49°19' W 123°06'0 0.0
2017-Dec-09 12:00N 49°19' W 123°06'0 0.0
2017-Dec-09 11:30N 49°19' W 123°06'0 0.0
2017-Dec-09 11:00N 49°19' W 123°06'0 0.0
2017-Dec-09 10:30N 49°19' W 123°06'0 0.0
2017-Dec-09 10:01N 49°19' W 123°06'0 0.0
2017-Dec-09 09:30N 49°19' W 123°06'0 0.0
2017-Dec-09 09:00N 49°19' W 123°06'0 0.0
2017-Dec-09 08:30N 49°19' W 123°06'0 0.0
2017-Dec-09 08:00N 49°19' W 123°06'0 0.0
2017-Dec-09 07:30N 49°19' W 123°06'0 0.0
2017-Dec-09 07:00N 49°19' W 123°06'0 0.0
2017-Dec-09 06:31N 49°19' W 123°06'0 0.0
2017-Dec-09 06:00N 49°19' W 123°06'0 0.0
2017-Dec-09 05:30N 49°19' W 123°06'0 0.0
2017-Dec-09 05:00N 49°19' W 123°06'0 0.6
2017-Dec-09 04:30N 49°19' W 123°06'0 0.8
2017-Dec-09 04:00N 49°18' W 123°07'3 6.7
2017-Dec-09 03:30N 49°19' W 123°12'4 8.1
2017-Dec-09 03:00N 49°17' W 123°18'4 7.8
2017-Dec-09 02:28N 49°14' W 123°22'23 1.9
2017-Dec-08 14:26N 48°56' W 123°42'0 0.6
2017-Dec-08 14:00N 48°56' W 123°42'1 2.4
2017-Dec-08 13:29N 48°57' W 123°42'3 3.6
2017-Dec-08 12:47N 48°55' W 123°39'14 2.3
2017-Dec-08 06:46N 49°08' W 123°29'1 3.8
2017-Dec-08 06:23N 49°09' W 123°28'1 3.8
2017-Dec-08 06:01N 49°10' W 123°27'2 3.6
2017-Dec-08 05:30N 49°12' W 123°26'2 3.7
2017-Dec-08 05:00N 49°13' W 123°24'2 4.2
2017-Dec-08 04:30N 49°15' W 123°23'2 4.0
2017-Dec-08 04:00N 49°17' W 123°21'2 3.9
2017-Dec-08 03:29N 49°18' W 123°19'2 3.8
2017-Dec-08 03:00N 49°19' W 123°16'2 3.7
2017-Dec-08 02:30N 49°19' W 123°14'2 4.2
2017-Dec-08 02:00N 49°19' W 123°10'3 5.7
2017-Dec-08 01:31N 49°18' W 123°06'3 6.3
2017-Dec-08 01:00N 49°18' W 123°02'2 4.5
2017-Dec-08 00:28N 49°18' W 122°58'0 0.4
2017-Dec-07 23:56N 49°17' W 122°58'0 0.0
2017-Dec-07 23:29N 49°17' W 122°58'2 3.9
2017-Dec-07 23:00N 49°18' W 123°01'4 7.1
2017-Dec-07 22:31N 49°18' W 123°06'0 0.6
2017-Dec-07 22:00N 49°18' W 123°06'1 1.4
2017-Dec-07 21:30N 49°19' W 123°06'0 0.0
2017-Dec-07 21:00N 49°19' W 123°06'0 0.0
2017-Dec-07 20:31N 49°19' W 123°06'0 0.0
2017-Dec-07 20:01N 49°19' W 123°06'0 0.7
2017-Dec-07 19:30N 49°18' W 123°06'1 1.7
2017-Dec-07 19:00N 49°18' W 123°07'0 0.0
2017-Dec-07 18:30N 49°18' W 123°07'0 0.0
2017-Dec-07 18:00N 49°18' W 123°07'0 0.0
2017-Dec-07 17:30N 49°18' W 123°07'0 0.0
2017-Dec-07 17:00N 49°18' W 123°07'0 0.0
2017-Dec-07 16:30N 49°18' W 123°07'1 1.3
2017-Dec-07 16:00N 49°18' W 123°06'1 1.8
2017-Dec-07 15:30N 49°17' W 123°05'1 1.5
2017-Dec-07 15:00N 49°18' W 123°05'1 1.7
2017-Dec-07 14:30N 49°19' W 123°06'0 0.3
2017-Dec-07 14:01N 49°19' W 123°06'0 0.0
2017-Dec-07 13:30N 49°19' W 123°06'0 0.0
2017-Dec-07 13:00N 49°19' W 123°06'0 0.0
2017-Dec-07 12:30N 49°19' W 123°06'0 0.0
2017-Dec-07 12:00N 49°19' W 123°06'0 0.0
2017-Dec-07 11:31N 49°19' W 123°06'0 0.0
2017-Dec-07 11:00N 49°19' W 123°06'1 1.2
2017-Dec-07 10:30N 49°18' W 123°06'1 2.1
2017-Dec-07 10:00N 49°18' W 123°07'2 3.0
2017-Dec-07 09:30N 49°19' W 123°09'2 3.8
2017-Dec-07 09:00N 49°19' W 123°12'3 6.6
2017-Dec-07 08:30N 49°18' W 123°17'4 6.2
2017-Dec-07 07:56N 49°17' W 123°23'3 6.3
2017-Dec-07 07:29N 49°17' W 123°27'3 6.6
2017-Dec-07 06:59N 49°16' W 123°32'  
2017-Dec-04 10:30N 49°19' W 123°14'3 6.3
2017-Dec-04 10:00N 49°19' W 123°09'2 3.6
2017-Dec-04 09:31N 49°18' W 123°06'2 4.0
2017-Dec-04 09:00N 49°18' W 123°03'2 3.6
2017-Dec-04 08:30N 49°18' W 123°06'0 0.9
2017-Dec-04 08:00N 49°19' W 123°06'0 0.0
2017-Dec-04 07:30N 49°19' W 123°06'0 0.0
2017-Dec-04 07:00N 49°19' W 123°06'0 0.0
2017-Dec-04 06:30N 49°19' W 123°06'0 0.0
2017-Dec-04 06:00N 49°19' W 123°06'0 0.0
2017-Dec-04 05:30N 49°19' W 123°06'0 0.0
2017-Dec-04 05:00N 49°19' W 123°06'0 0.5
2017-Dec-04 04:30N 49°18' W 123°06'1 1.8
2017-Dec-04 04:01N 49°18' W 123°07'0 0.0
2017-Dec-04 03:30N 49°18' W 123°07'1 2.0
2017-Dec-04 03:00N 49°19' W 123°06'0 0.5
2017-Dec-04 02:31N 49°19' W 123°06'0 0.0
2017-Dec-04 02:01N 49°19' W 123°06'0 0.0
2017-Dec-04 01:30N 49°19' W 123°06'1 2.8
2017-Dec-04 01:01N 49°19' W 123°08'5 9.7
2017-Dec-04 00:30N 49°18' W 123°16'3 5.7
2017-Dec-03 23:59N 49°15' W 123°16'1 3.1
2017-Dec-03 23:30N 49°16' W 123°17'1 2.2
2017-Dec-03 22:56N 49°16' W 123°19'22 7.3
2017-Dec-03 19:53N 49°12' W 123°53'3 5.8
2017-Dec-03 19:26N 49°09' W 123°52'1 1.0
2017-Dec-03 18:36N 49°09' W 123°51'0 0.0
2017-Dec-03 18:17N 49°09' W 123°51'0 0.1
2017-Dec-03 17:47N 49°09' W 123°51'2 0.3
2017-Dec-03 11:29N 49°10' W 123°53'13 4.4
2017-Dec-03 08:36N 49°14' W 123°35'1 5.3
2017-Dec-03 08:24N 49°15' W 123°33'2 5.5
2017-Dec-03 07:57N 49°15' W 123°29'3 5.5
2017-Dec-03 07:30N 49°15' W 123°25'3 5.5
2017-Dec-03 07:00N 49°16' W 123°21'2 4.5
2017-Dec-03 06:30N 49°16' W 123°18'1 2.8
2017-Dec-03 06:00N 49°15' W 123°18'3 6.4
2017-Dec-03 05:30N 49°11' W 123°19'3 6.3
2017-Dec-03 05:00N 49°08' W 123°19'6 6.4
2017-Dec-03 04:08N 49°07' W 123°11'211.4
2017-Dec-03 04:00N 49°07' W 123°09'510.4
2017-Dec-03 03:30N 49°09' W 123°02'3 5.8
2017-Dec-03 03:00N 49°09' W 122°57'3 0.5
2017-Dec-02 20:25N 49°12' W 122°55'3 7.8
2017-Dec-02 20:00N 49°09' W 122°58'3 5.3
2017-Dec-02 19:30N 49°09' W 123°02'5 9.6
2017-Dec-02 19:00N 49°11' W 122°55'1 0.7
2017-Dec-02 17:34N 49°12' W 122°55'0 5.6
2017-Dec-02 17:30N 49°12' W 122°55'1 3.1
2017-Dec-02 17:00N 49°10' W 122°55'0 0.0
2017-Dec-02 16:30N 49°10' W 122°55'0 0.0
2017-Dec-02 16:00N 49°10' W 122°55'0 0.0
2017-Dec-02 15:30N 49°10' W 122°55'2 3.2
2017-Dec-02 15:00N 49°12' W 122°55'2 3.1
2017-Dec-02 14:30N 49°10' W 122°56'3 5.1
2017-Dec-02 14:00N 49°09' W 122°59'3 5.7
2017-Dec-02 13:30N 49°08' W 123°03'3 6.3
2017-Dec-02 13:00N 49°07' W 123°07'3 6.0
2017-Dec-02 12:30N 49°07' W 123°12'3 5.8
2017-Dec-02 11:58N 49°07' W 123°17'2 4.1
2017-Dec-02 11:30N 49°07' W 123°19'2 5.0
2017-Dec-02 11:00N 49°09' W 123°19'3 6.1
2017-Dec-02 10:30N 49°12' W 123°18'3 5.8
2017-Dec-02 10:00N 49°15' W 123°18'1 2.8
2017-Dec-02 09:30N 49°16' W 123°18'2 4.6
2017-Dec-02 09:00N 49°17' W 123°21'3 5.5
2017-Dec-02 08:31N 49°18' W 123°25'2 4.4
2017-Dec-02 07:59N 49°20' W 123°28'2 4.4
2017-Dec-02 07:30N 49°21' W 123°30'2 4.2
2017-Dec-02 07:00N 49°22' W 123°33'2 4.1
2017-Dec-02 06:27N 49°23' W 123°36'2 3.9
2017-Dec-02 06:00N 49°24' W 123°39'13 3.2
2017-Dec-02 02:01N 49°27' W 123°58'0 3.2
2017-Dec-02 01:56N 49°27' W 123°58'1 2.9
2017-Dec-02 01:25N 49°28' W 124°00'1 3.6
2017-Dec-02 01:00N 49°29' W 124°02'2 4.5
2017-Dec-02 00:27N 49°31' W 124°04'2 4.3
2017-Dec-01 23:54N 49°33' W 124°06'2 4.2
2017-Dec-01 23:29N 49°34' W 124°08'3 4.0
2017-Dec-01 22:49N 49°36' W 124°11'2 4.2
2017-Dec-01 22:13N 49°38' W 124°14'1 4.2
2017-Dec-01 22:00N 49°38' W 124°15'2 4.1
2017-Dec-01 21:30N 49°40' W 124°17'2 3.9
2017-Dec-01 21:00N 49°41' W 124°19'2 4.1
2017-Dec-01 20:30N 49°43' W 124°21'2 4.4
2017-Dec-01 20:00N 49°44' W 124°24'2 4.0
2017-Dec-01 19:30N 49°45' W 124°26'2 3.7
2017-Dec-01 19:00N 49°46' W 124°29'2 4.0
2017-Dec-01 18:30N 49°47' W 124°31'2 4.1
2017-Dec-01 18:00N 49°49' W 124°33'  

Dump ship's entire track history